Time;durP1;ratioP1;P1;durP2;ratioP2;P2;SDS_P1;SDS_P2;PMS_P1;PMS_P2;Temp;Humidity;BMP_temperature;BMP_pressure;BME280_temperature;BME280_humidity;BME280_pressure;Samples;Min_cycle;Max_cycle;Signal;HPM_P1;HPM_P2
2022/03/07 00:00:44;;;;;;;;;0.25;0.25;;;;;15.91;50.63;102874.84;5034384;28;8798;-80
2022/03/07 00:03:09;;;;;;;;;1.00;1.00;;;;;15.90;50.61;102867.78;5035172;28;8791;-81
2022/03/07 00:05:34;;;;;;;;;1.25;1.25;;;;;15.87;50.09;102865.03;5041841;28;9826;-80
2022/03/07 00:08:00;;;;;;;;;0.25;0.25;;;;;15.86;49.94;102871.16;5042680;28;8889;-80
2022/03/07 00:10:25;;;;;;;;;1.50;1.50;;;;;15.86;50.34;102871.16;5032569;28;8790;-80
2022/03/07 00:12:50;;;;;;;;;1.00;1.00;;;;;15.85;50.04;102873.75;5032236;28;8933;-80
2022/03/07 00:15:16;;;;;;;;;0.75;0.75;;;;;15.84;49.45;102871.97;5020020;28;8805;-80
2022/03/07 00:17:42;;;;;;;;;1.00;1.00;;;;;15.83;49.99;102881.59;5012050;28;8813;-82
2022/03/07 00:20:07;;;;;;;;;0.25;0.25;;;;;15.81;49.69;102875.41;5012106;28;9666;-81
2022/03/07 00:22:33;;;;;;;;;1.00;1.00;;;;;15.83;49.26;102875.41;5011910;28;8801;-81
2022/03/07 00:24:58;;;;;;;;;1.50;1.50;;;;;15.84;49.65;102877.22;5011730;28;8793;-81
2022/03/07 00:27:23;;;;;;;;;1.00;1.00;;;;;15.83;49.60;102872.78;5011871;28;8789;-80
2022/03/07 00:29:49;;;;;;;;;1.75;1.00;;;;;15.82;49.83;102877.16;5011793;28;8789;-80
2022/03/07 00:32:14;;;;;;;;;0.50;0.50;;;;;15.84;49.78;102877.22;5026678;28;8775;-79
2022/03/07 00:34:39;;;;;;;;;2.00;1.00;;;;;15.82;49.95;102885.06;5031204;28;8786;-80
2022/03/07 00:37:05;;;;;;;;;0.75;0.75;;;;;15.83;49.66;102888.59;5031672;28;8969;-80
2022/03/07 00:39:31;;;;;;;;;1.00;1.00;;;;;15.79;49.71;102884.06;5031531;28;8840;-80
2022/03/07 00:41:56;;;;;;;;;1.00;1.00;;;;;15.79;49.58;102881.44;5031223;28;9739;-79
2022/03/07 00:44:24;;;;;;;;;0.25;0.25;;;;;15.81;50.05;102882.41;5031514;28;8791;-79
2022/03/07 00:46:49;;;;;;;;;1.00;1.00;;;;;15.80;49.48;102883.22;5031435;28;8830;-77
2022/03/07 00:49:15;;;;;;;;;1.00;1.00;;;;;15.77;49.36;102886.66;5031275;28;9828;-79
2022/03/07 00:51:40;;;;;;;;;1.00;1.00;;;;;15.77;49.21;102893.69;5030894;28;8791;-79
2022/03/07 00:54:05;;;;;;;;;1.00;1.00;;;;;15.77;48.97;102889.31;5031390;28;8798;-79
2022/03/07 00:56:33;;;;;;;;;1.00;1.00;;;;;15.73;49.10;102894.41;5030209;28;8851;-79
2022/03/07 00:58:59;;;;;;;;;1.00;1.00;;;;;15.77;49.29;102899.84;5030856;28;8783;-80
2022/03/07 01:01:24;;;;;;;;;1.50;0.75;;;;;15.74;49.24;102893.59;5030995;28;9568;-79
2022/03/07 01:03:50;;;;;;;;;1.00;1.00;;;;;15.68;49.22;102891.63;5030776;28;8799;-79
2022/03/07 01:06:15;;;;;;;;;0.25;0.25;;;;;15.73;48.98;102897.94;5030761;28;8790;-79
2022/03/07 01:08:41;;;;;;;;;1.00;1.00;;;;;15.72;49.18;102895.25;5030854;28;9586;-79
2022/03/07 01:11:06;;;;;;;;;1.50;1.50;;;;;15.71;48.99;102894.34;5030332;28;8910;-79
2022/03/07 01:13:32;;;;;;;;;1.00;1.00;;;;;15.68;48.98;102889.00;5030267;28;8794;-80
2022/03/07 01:15:57;;;;;;;;;0.00;0.00;;;;;15.72;48.82;102889.97;5013664;28;8794;-78
2022/03/07 01:18:23;;;;;;;;;1.00;1.00;;;;;15.68;49.15;102890.72;5010629;28;8817;-79
2022/03/07 01:20:48;;;;;;;;;1.75;1.00;;;;;15.70;49.10;102895.22;5010941;28;8805;-80
2022/03/07 01:23:13;;;;;;;;;1.00;1.00;;;;;15.69;48.68;102892.53;5010936;28;8789;-78
2022/03/07 01:25:39;;;;;;;;;1.75;1.75;;;;;15.68;48.86;102890.72;5011638;28;8789;-79
2022/03/07 01:28:04;;;;;;;;;1.00;1.00;;;;;15.63;49.10;102893.22;5011246;28;8781;-77
2022/03/07 01:30:29;;;;;;;;;1.00;1.00;;;;;15.61;48.61;102902.78;5011268;28;8809;-79
2022/03/07 01:32:55;;;;;;;;;1.00;1.00;;;;;15.62;48.84;102891.44;5030772;28;8783;-78
2022/03/07 01:35:21;;;;;;;;;1.00;1.00;;;;;15.62;48.70;102887.91;5031194;28;9882;-78
2022/03/07 01:37:47;;;;;;;;;1.25;1.25;;;;;15.68;48.77;102896.00;5029825;28;8835;-79
2022/03/07 01:40:13;;;;;;;;;3.00;1.00;;;;;15.68;48.75;102891.63;5030543;28;9825;-78
2022/03/07 01:42:38;;;;;;;;;1.00;1.00;;;;;15.62;48.86;102894.06;5030390;28;9499;-79
2022/03/07 01:45:14;;;;;;;;;1.00;1.00;;;;;15.60;48.33;102895.72;5030244;28;8917;-78
2022/03/07 01:47:39;;;;;;;;;2.00;2.00;;;;;15.57;48.77;102898.25;5030339;28;8811;-77
2022/03/07 01:50:08;;;;;;;;;1.50;1.50;;;;;15.57;48.20;102903.53;5030711;28;9967;-79
2022/03/07 01:52:36;;;;;;;;;0.25;0.25;;;;;15.58;48.49;102897.44;5029814;28;8917;-78
2022/03/07 01:55:02;;;;;;;;;1.75;1.75;;;;;15.57;48.23;102898.25;5030250;28;9710;-77
2022/03/07 01:57:29;;;;;;;;;1.25;1.00;;;;;15.63;48.08;102889.69;5029933;28;9671;-77
2022/03/07 01:59:54;;;;;;;;;1.00;1.00;;;;;15.58;48.21;102891.25;5030135;28;8886;-77
2022/03/07 02:02:24;;;;;;;;;1.00;1.00;;;;;15.53;48.10;102883.22;5030310;28;9950;-78
2022/03/07 02:04:50;;;;;;;;;1.00;1.00;;;;;15.56;48.16;102893.84;5030751;28;8778;-78
2022/03/07 02:07:15;;;;;;;;;1.00;1.00;;;;;15.58;47.77;102899.16;5029636;28;9808;-78
2022/03/07 02:09:40;;;;;;;;;1.25;1.25;;;;;15.56;48.00;102887.69;5030161;28;8810;-77
2022/03/07 02:12:07;;;;;;;;;1.00;1.00;;;;;15.55;48.10;102888.53;5030472;28;8799;-77
2022/03/07 02:14:34;;;;;;;;;0.25;0.25;;;;;15.53;47.83;102883.22;5023592;28;8924;-77
2022/03/07 02:17:00;;;;;;;;;1.00;0.00;;;;;15.53;47.87;102880.56;5010462;28;9731;-77
2022/03/07 02:19:25;;;;;;;;;1.00;1.00;;;;;15.56;48.14;102878.03;5010198;28;9834;-76
2022/03/07 02:22:02;;;;;;;;;1.00;1.00;;;;;15.54;47.82;102881.47;5009874;28;8781;-77
2022/03/07 02:24:28;;;;;;;;;1.75;0.00;;;;;15.53;47.60;102882.31;5010334;28;8823;-77
2022/03/07 02:27:08;;;;;;;;;1.00;1.00;;;;;15.53;47.56;102877.94;5010092;28;9687;-78
2022/03/07 02:29:34;;;;;;;;;1.00;1.00;;;;;15.55;47.59;102884.16;5010102;28;9891;-77
2022/03/07 02:32:00;;;;;;;;;1.00;1.00;;;;;15.52;47.75;102873.53;5023331;28;9824;-77
2022/03/07 02:34:25;;;;;;;;;1.00;1.00;;;;;15.55;47.44;102876.28;5029381;28;9716;-77
2022/03/07 02:36:51;;;;;;;;;1.00;1.00;;;;;15.52;47.03;102877.91;5029761;28;8854;-78
2022/03/07 02:39:18;;;;;;;;;0.50;0.50;;;;;15.52;47.38;102881.44;5030671;28;8865;-77
2022/03/07 02:41:55;;;;;;;;;1.00;1.00;;;;;15.45;47.44;102867.13;5030368;28;8783;-77
2022/03/07 02:44:21;;;;;;;;;1.75;1.75;;;;;15.48;47.48;102868.97;5032061;28;9808;-77
2022/03/07 02:46:47;;;;;;;;;1.25;1.25;;;;;15.51;47.48;102874.38;5030125;28;9765;-78
2022/03/07 02:49:13;;;;;;;;;0.75;0.75;;;;;15.52;47.31;102880.53;5033070;28;11870;-77
2022/03/07 02:51:38;;;;;;;;;2.00;1.00;;;;;15.50;47.33;102875.22;5032950;28;8799;-77
2022/03/07 02:54:04;;;;;;;;;0.00;0.00;;;;;15.48;47.32;102866.34;5033436;28;9708;-77
2022/03/07 02:56:29;;;;;;;;;1.00;1.00;;;;;15.46;47.00;102862.75;5032665;28;9015;-76
2022/03/07 02:58:54;;;;;;;;;0.00;0.00;;;;;15.48;46.96;102861.94;5033235;28;8775;-77
2022/03/07 03:01:20;;;;;;;;;1.50;1.50;;;;;15.50;46.79;102856.78;5033380;28;8805;-76
2022/03/07 03:03:48;;;;;;;;;0.50;0.50;;;;;15.48;47.04;102861.09;5032542;28;8766;-77
2022/03/07 03:06:14;;;;;;;;;1.00;1.00;;;;;15.51;46.81;102860.31;5033140;28;8813;-77
2022/03/07 03:08:39;;;;;;;;;1.50;1.50;;;;;15.49;47.07;102868.16;5032902;28;10397;-76
2022/03/07 03:11:04;;;;;;;;;2.00;2.00;;;;;15.50;47.18;102867.31;5032714;28;8797;-77
2022/03/07 03:13:32;;;;;;;;;2.00;2.00;;;;;15.53;46.87;102867.41;5032975;28;8807;-76
2022/03/07 03:15:57;;;;;;;;;0.00;0.00;;;;;15.50;46.77;102854.16;5014914;28;8785;-77
2022/03/07 03:18:23;;;;;;;;;3.25;2.25;;;;;15.50;46.83;102861.16;5012769;28;9763;-76
2022/03/07 03:20:58;;;;;;;;;1.00;1.00;;;;;15.48;46.63;102850.56;5013183;28;8912;-76
2022/03/07 03:23:23;;;;;;;;;1.25;1.25;;;;;15.48;46.84;102856.69;5012985;28;9035;-76
2022/03/07 03:25:51;;;;;;;;;1.00;1.00;;;;;15.55;46.87;102856.94;5012535;28;9991;-77
2022/03/07 03:28:17;;;;;;;;;2.00;2.00;;;;;15.46;46.62;102855.75;5013393;28;8781;-76
2022/03/07 03:30:42;;;;;;;;;1.00;1.00;;;;;15.44;46.59;102861.81;5014299;28;9908;-76
2022/03/07 03:33:08;;;;;;;;;1.00;1.00;;;;;15.46;46.59;102857.50;5032553;28;8825;-76
2022/03/07 03:35:36;;;;;;;;;1.00;1.00;;;;;15.44;46.79;102854.81;5032473;28;8791;-80
2022/03/07 03:38:03;;;;;;;;;1.25;1.25;;;;;15.53;47.18;102862.16;5032211;28;8854;-75
2022/03/07 03:40:29;;;;;;;;;1.00;1.00;;;;;15.48;46.83;102851.41;5031682;28;9654;-76
2022/03/07 03:42:54;;;;;;;;;2.00;2.00;;;;;15.49;46.67;102833.94;5032438;28;9840;-76
2022/03/07 03:45:19;;;;;;;;;0.00;0.00;;;;;15.50;46.74;102845.34;5031652;28;9492;-76
2022/03/07 03:47:45;;;;;;;;;1.00;1.00;;;;;15.47;46.59;102838.22;5031635;28;8791;-75
2022/03/07 03:50:13;;;;;;;;;1.00;1.00;;;;;15.47;46.56;102833.88;5032478;28;8775;-75
2022/03/07 03:52:39;;;;;;;;;1.00;1.00;;;;;15.50;46.33;102841.00;5031828;28;8795;-74
2022/03/07 03:55:06;;;;;;;;;1.00;1.00;;;;;15.43;46.68;102838.97;5032059;28;9826;-75
2022/03/07 03:57:32;;;;;;;;;2.00;1.00;;;;;15.49;46.48;102852.34;5031449;28;11545;-76
2022/03/07 03:59:57;;;;;;;;;1.25;1.00;;;;;15.50;46.59;102845.34;5031249;28;9690;-76
2022/03/07 04:02:23;;;;;;;;;0.00;0.00;;;;;15.50;46.33;102846.25;5031906;28;8831;-75
2022/03/07 04:04:48;;;;;;;;;1.00;1.00;;;;;15.55;46.49;102843.78;5032344;28;8894;-76
2022/03/07 04:07:13;;;;;;;;;1.00;1.00;;;;;15.51;46.46;102841.88;5031423;28;8810;-76
2022/03/07 04:09:39;;;;;;;;;1.00;1.00;;;;;15.54;46.36;102844.63;5031730;28;8797;-75
2022/03/07 04:12:07;;;;;;;;;1.00;1.00;;;;;15.52;46.21;102847.22;5031451;28;8786;-74
2022/03/07 04:14:33;;;;;;;;;1.00;1.00;;;;;15.54;46.22;102850.78;5025108;28;8824;-76
2022/03/07 04:16:59;;;;;;;;;1.00;1.00;;;;;15.45;46.23;102851.31;5011911;28;9768;-75
2022/03/07 04:19:24;;;;;;;;;1.50;1.00;;;;;15.45;45.94;102846.06;5011624;28;8890;-75
2022/03/07 04:21:49;;;;;;;;;0.25;0.25;;;;;15.47;46.08;102844.38;5012025;28;8801;-76
2022/03/07 04:24:17;;;;;;;;;1.25;1.00;;;;;15.49;46.17;102841.81;5011911;28;9549;-75
2022/03/07 04:26:43;;;;;;;;;1.00;1.00;;;;;15.48;46.18;102840.88;5011173;28;8781;-76
2022/03/07 04:29:09;;;;;;;;;1.00;1.00;;;;;15.49;46.36;102849.72;5011638;28;9801;-75
2022/03/07 04:31:35;;;;;;;;;0.00;0.00;;;;;15.48;45.67;102850.56;5020867;28;8815;-75
2022/03/07 04:34:01;;;;;;;;;0.00;0.00;;;;;15.51;45.77;102848.06;5031238;28;8798;-76
2022/03/07 04:36:26;;;;;;;;;0.00;0.00;;;;;15.53;45.57;102853.34;5031093;28;10698;-76
2022/03/07 04:38:52;;;;;;;;;2.00;2.00;;;;;15.51;45.83;102841.88;5031397;28;8809;-75
2022/03/07 04:41:17;;;;;;;;;1.00;1.00;;;;;15.47;45.79;102857.56;5030879;28;8783;-76
2022/03/07 04:43:42;;;;;;;;;2.00;2.00;;;;;15.46;45.54;102850.50;5030809;28;8811;-76
2022/03/07 04:46:11;;;;;;;;;1.00;1.00;;;;;15.47;46.01;102843.50;5030957;28;8799;-75
2022/03/07 04:48:37;;;;;;;;;1.00;1.00;;;;;15.52;45.58;102847.22;5030824;28;8806;-75
2022/03/07 04:51:03;;;;;;;;;2.00;1.00;;;;;15.44;45.46;102840.75;5031250;28;9874;-75
2022/03/07 04:53:29;;;;;;;;;0.75;0.75;;;;;15.45;45.23;102850.44;5031180;28;8806;-75
2022/03/07 04:55:55;;;;;;;;;0.00;0.00;;;;;15.51;45.62;102855.94;5030418;28;10771;-73
2022/03/07 04:58:21;;;;;;;;;1.00;1.00;;;;;15.51;45.48;102850.69;5030734;28;11066;-74
2022/03/07 05:00:46;;;;;;;;;0.75;0.75;;;;;15.50;45.57;102850.63;5030687;28;9933;-75
2022/03/07 05:03:11;;;;;;;;;1.00;1.00;;;;;15.47;45.42;102848.75;5030545;28;8815;-74
2022/03/07 05:05:37;;;;;;;;;0.00;0.00;;;;;15.49;45.22;102847.09;5030469;28;8801;-75
2022/03/07 05:08:03;;;;;;;;;1.00;1.00;;;;;15.53;44.90;102850.72;5030986;28;8814;-75
2022/03/07 05:10:28;;;;;;;;;1.25;1.25;;;;;15.51;45.07;102849.78;5029718;28;8798;-75
2022/03/07 05:12:53;;;;;;;;;0.00;0.00;;;;;15.51;45.11;102849.78;5030846;28;8791;-76
2022/03/07 05:15:18;;;;;;;;;1.25;1.00;;;;;15.47;44.90;102846.13;5018071;28;8857;-75
2022/03/07 05:17:54;;;;;;;;;1.50;1.00;;;;;15.47;45.33;102854.91;5010628;28;8891;-75
2022/03/07 05:20:21;;;;;;;;;2.25;1.00;;;;;15.47;44.93;102848.75;5011468;28;8789;-76
2022/03/07 05:22:47;;;;;;;;;1.00;1.00;;;;;15.48;45.09;102855.81;5010537;28;9980;-74
2022/03/07 05:25:14;;;;;;;;;0.00;0.00;;;;;15.47;44.96;102860.19;5010672;28;9899;-75
2022/03/07 05:27:39;;;;;;;;;0.00;0.00;;;;;15.48;44.82;102850.56;5010873;28;8793;-75
2022/03/07 05:30:07;;;;;;;;;1.00;1.00;;;;;15.51;44.70;102855.94;5010798;28;10542;-75
2022/03/07 05:32:32;;;;;;;;;0.00;0.00;;;;;15.46;44.93;102854.84;5027394;28;8832;-75
2022/03/07 05:34:58;;;;;;;;;0.75;0.00;;;;;15.52;44.79;102863.00;5031002;28;9720;-75
2022/03/07 05:37:23;;;;;;;;;2.00;1.25;;;;;15.51;44.72;102853.31;5030047;28;8822;-75
2022/03/07 05:39:49;;;;;;;;;1.00;1.00;;;;;15.52;44.69;102856.84;5030303;28;8889;-74
2022/03/07 05:42:14;;;;;;;;;0.00;0.00;;;;;15.49;44.56;102854.97;5030404;28;8782;-74
2022/03/07 05:44:42;;;;;;;;;0.50;0.50;;;;;15.48;44.54;102861.94;5029833;28;8775;-75
2022/03/07 05:47:11;;;;;;;;;0.25;0.25;;;;;15.49;44.55;102870.78;5030205;28;8811;-75
2022/03/07 05:49:36;;;;;;;;;0.00;0.00;;;;;15.51;44.71;102863.84;5030508;28;9492;-74
2022/03/07 05:52:03;;;;;;;;;1.00;1.00;;;;;15.50;44.44;102866.41;5029993;28;9655;-74
2022/03/07 05:54:28;;;;;;;;;2.00;1.00;;;;;15.48;44.20;102867.22;5029997;28;8810;-75
2022/03/07 05:56:53;;;;;;;;;0.25;0.00;;;;;15.48;44.16;102871.63;5030459;28;9694;-74
2022/03/07 05:59:22;;;;;;;;;1.00;1.00;;;;;15.44;44.52;102881.16;5030207;28;8798;-77
2022/03/07 06:01:47;;;;;;;;;1.00;1.00;;;;;15.53;45.67;102877.03;5030207;28;8893;-75
2022/03/07 06:04:12;;;;;;;;;1.00;1.00;;;;;15.62;45.24;102886.16;5031029;28;9755;-75
2022/03/07 06:06:38;;;;;;;;;2.25;2.25;;;;;15.72;46.83;102884.72;5029331;28;8852;-75
2022/03/07 06:09:03;;;;;;;;;2.50;1.25;;;;;15.85;49.59;102889.56;5030878;28;8817;-74
2022/03/07 06:11:29;;;;;;;;;1.00;1.00;;;;;15.94;52.96;102882.84;5030072;28;8783;-74
2022/03/07 06:13:54;;;;;;;;;1.00;1.00;;;;;16.03;52.68;102895.41;5029024;28;8894;-77
2022/03/07 06:16:19;;;;;;;;;2.00;2.00;;;;;16.09;56.50;102892.97;5010455;28;8914;-83
2022/03/07 06:18:45;;;;;;;;;2.00;2.00;;;;;16.12;56.05;102886.91;5010027;28;8809;-76
2022/03/07 06:21:10;;;;;;;;;2.00;2.00;;;;;16.19;57.22;102888.91;5010331;28;8782;-76
2022/03/07 06:23:36;;;;;;;;;3.25;2.00;;;;;16.22;57.20;102896.88;5014121;28;8789;-77
2022/03/07 06:26:05;;;;;;;;;3.25;3.00;;;;;16.23;59.32;102902.19;5014406;28;8943;-77
2022/03/07 06:28:30;;;;;;;;;3.00;2.00;;;;;16.11;60.90;102903.56;5020079;28;9930;-80
2022/03/07 06:30:55;;;;;;;;;7.00;4.25;;;;;15.88;61.18;102895.81;5021791;28;10092;-76
2022/03/07 06:33:24;;;;;;;;;5.75;4.00;;;;;16.00;61.91;102903.22;5033637;28;8814;-73
2022/03/07 06:35:49;;;;;;;;;5.00;5.00;;;;;16.19;61.98;102897.69;5033628;28;8909;-71
2022/03/07 06:38:16;;;;;;;;;6.50;4.50;;;;;16.14;60.91;102896.66;5034094;28;9940;-73
2022/03/07 06:40:42;;;;;;;;;3.00;3.00;;;;;16.20;61.38;102903.84;5033177;28;8862;-74
2022/03/07 06:43:07;;;;;;;;;5.00;3.50;;;;;16.18;61.31;102900.28;5033105;28;9876;-73
2022/03/07 06:45:33;;;;;;;;;3.00;3.00;;;;;16.16;60.23;102901.97;5032726;28;8838;-74
2022/03/07 06:48:01;;;;;;;;;3.25;2.50;;;;;16.21;60.85;102906.53;5033051;28;8791;-77
2022/03/07 06:50:32;;;;;;;;;4.00;3.00;;;;;16.20;60.10;102909.09;5033090;28;8869;-74
2022/03/07 06:52:58;;;;;;;;;3.00;2.00;;;;;16.16;60.27;102908.13;5033441;28;9678;-74
2022/03/07 06:55:24;;;;;;;;;3.50;3.50;;;;;16.22;60.28;102910.06;5033060;28;9737;-74
2022/03/07 06:57:50;;;;;;;;;2.00;2.00;;;;;16.14;60.03;102907.19;5033160;28;9966;-74
2022/03/07 07:00:16;;;;;;;;;3.25;2.50;;;;;16.20;60.45;102915.28;5033071;28;9798;-74
2022/03/07 07:02:42;;;;;;;;;1.75;1.75;;;;;16.21;60.00;102905.63;5032170;28;8826;-73
2022/03/07 07:05:08;;;;;;;;;2.00;2.00;;;;;16.19;59.60;102902.97;5033364;28;9862;-74
2022/03/07 07:07:35;;;;;;;;;2.00;1.25;;;;;16.23;59.46;102907.47;5032622;28;9644;-74
2022/03/07 07:10:00;;;;;;;;;2.75;2.75;;;;;16.17;58.91;102902.00;5032281;28;9720;-73
2022/03/07 07:12:26;;;;;;;;;0.75;0.75;;;;;16.19;58.57;102907.34;5032649;28;9569;-74
2022/03/07 07:14:51;;;;;;;;;5.50;2.75;;;;;16.21;58.45;102913.53;5023875;28;8813;-75
2022/03/07 07:17:16;;;;;;;;;2.00;2.00;;;;;16.12;58.45;102913.25;5012887;28;8833;-74
2022/03/07 07:19:42;;;;;;;;;2.50;1.00;;;;;16.15;58.37;102922.16;5013599;28;8959;-74
2022/03/07 07:22:07;;;;;;;;;2.00;1.00;;;;;16.14;58.09;102917.72;5014430;28;8785;-73
2022/03/07 07:24:33;;;;;;;;;1.00;1.00;;;;;16.07;57.39;102913.13;5012622;28;8793;-74
2022/03/07 07:26:58;;;;;;;;;5.00;3.00;;;;;16.14;57.61;102924.75;5013001;28;8851;-73
2022/03/07 07:29:24;;;;;;;;;2.25;2.25;;;;;16.18;57.27;102916.09;5012715;28;8814;-74
2022/03/07 07:31:51;;;;;;;;;3.00;3.00;;;;;16.15;56.81;102916.91;5023894;28;9542;-74
2022/03/07 07:34:19;;;;;;;;;1.00;1.00;;;;;16.18;56.97;102924.00;5032379;28;8783;-75
2022/03/07 07:36:45;;;;;;;;;2.25;2.25;;;;;16.22;56.75;102921.50;5031505;28;9827;-73
2022/03/07 07:39:10;;;;;;;;;2.00;1.00;;;;;16.20;56.48;102919.66;5032476;28;9638;-74
2022/03/07 07:41:38;;;;;;;;;1.50;1.50;;;;;16.22;56.04;102920.59;5032205;28;8795;-74
2022/03/07 07:44:04;;;;;;;;;2.00;2.00;;;;;16.19;56.28;102916.16;5032013;28;8782;-75
2022/03/07 07:46:29;;;;;;;;;1.50;1.50;;;;;16.16;55.72;102918.66;5031808;28;9669;-74
2022/03/07 07:48:54;;;;;;;;;2.00;2.00;;;;;16.20;55.61;102925.81;5032157;28;8928;-74
2022/03/07 07:51:20;;;;;;;;;1.50;1.50;;;;;16.24;55.59;102930.34;5031750;28;8909;-73
2022/03/07 07:53:48;;;;;;;;;2.75;2.75;;;;;16.19;55.41;102931.97;5032039;28;8856;-74
2022/03/07 07:56:14;;;;;;;;;2.00;1.00;;;;;16.24;55.33;102929.44;5031925;28;8913;-74
2022/03/07 07:58:39;;;;;;;;;1.00;1.00;;;;;16.26;55.32;102930.41;5031184;28;9693;-74
2022/03/07 08:01:05;;;;;;;;;1.00;1.00;;;;;16.25;54.98;102929.50;5032129;28;8817;-73
2022/03/07 08:03:31;;;;;;;;;2.00;2.00;;;;;16.23;54.78;102930.31;5031620;28;8802;-74
2022/03/07 08:05:56;;;;;;;;;3.25;2.00;;;;;16.23;54.87;102923.28;5031118;28;8818;-75
2022/03/07 08:08:21;;;;;;;;;2.50;2.50;;;;;16.22;54.50;102929.41;5031889;28;8896;-74
2022/03/07 08:10:47;;;;;;;;;1.00;1.00;;;;;16.21;54.27;102926.72;5031968;28;8841;-74
2022/03/07 08:13:12;;;;;;;;;2.00;1.50;;;;;16.20;54.19;102933.72;5031312;28;8791;-74
2022/03/07 08:15:40;;;;;;;;;1.00;1.00;;;;;16.19;53.82;102934.59;5016730;28;8802;-73
2022/03/07 08:18:05;;;;;;;;;2.00;1.00;;;;;16.21;54.05;102926.72;5012006;28;8840;-74
2022/03/07 08:20:31;;;;;;;;;3.00;1.00;;;;;16.24;53.66;102937.34;5010648;28;9814;-73
2022/03/07 08:22:56;;;;;;;;;1.00;1.00;;;;;16.19;53.59;102931.06;5012028;28;8813;-75
2022/03/07 08:25:22;;;;;;;;;2.50;1.50;;;;;16.24;53.45;102937.34;5011671;28;8817;-73
2022/03/07 08:27:48;;;;;;;;;3.25;2.00;;;;;16.25;53.28;102937.41;5011152;28;8774;-74
2022/03/07 08:30:16;;;;;;;;;1.00;1.00;;;;;16.21;53.10;102932.88;5011804;28;8809;-74
2022/03/07 08:32:41;;;;;;;;;2.50;2.50;;;;;16.24;53.17;102946.16;5029506;28;9640;-74
2022/03/07 08:35:09;;;;;;;;;1.50;1.50;;;;;16.32;52.76;102944.66;5030925;28;9797;-74
2022/03/07 08:37:35;;;;;;;;;1.00;1.00;;;;;16.26;52.50;102936.56;5031103;28;8810;-73
2022/03/07 08:40:03;;;;;;;;;1.75;1.75;;;;;16.28;52.47;102939.25;5031005;28;9714;-74
2022/03/07 08:42:35;;;;;;;;;1.00;1.00;;;;;16.28;52.46;102941.88;5030722;28;9559;-74
2022/03/07 08:45:00;;;;;;;;;2.00;2.00;;;;;16.27;52.35;102942.75;5030869;28;9870;-74
2022/03/07 08:47:26;;;;;;;;;1.00;1.00;;;;;16.27;52.09;102940.13;5030279;28;9820;-74
2022/03/07 08:49:52;;;;;;;;;1.00;1.00;;;;;16.25;52.27;102934.78;5030879;28;8828;-74
2022/03/07 08:52:23;;;;;;;;;1.00;1.00;;;;;16.32;51.76;102941.13;5031228;28;11486;-75
2022/03/07 08:54:48;;;;;;;;;1.00;1.00;;;;;16.31;51.89;102934.97;5030302;28;11469;-75
2022/03/07 08:57:14;;;;;;;;;3.00;2.00;;;;;16.29;51.77;102935.75;5031042;28;9731;-75
2022/03/07 08:59:39;;;;;;;;;1.50;1.50;;;;;16.35;51.67;102934.22;5031104;28;8889;-75
2022/03/07 09:02:05;;;;;;;;;1.00;1.00;;;;;16.35;51.56;102933.31;5030301;28;8809;-74
2022/03/07 09:04:31;;;;;;;;;2.00;2.00;;;;;16.39;51.26;102929.94;5030746;28;8803;-74
2022/03/07 09:06:57;;;;;;;;;2.00;2.00;;;;;16.37;50.83;102932.53;5030718;28;9431;-73
2022/03/07 09:09:22;;;;;;;;;1.50;1.50;;;;;16.38;51.15;102930.78;5030513;28;8864;-74
2022/03/07 09:11:48;;;;;;;;;1.00;1.00;;;;;16.41;50.91;102934.41;5030644;28;8779;-74
2022/03/07 09:14:14;;;;;;;;;1.00;0.75;;;;;16.37;50.83;102932.53;5027537;28;8796;-75
2022/03/07 09:16:40;;;;;;;;;0.00;0.00;;;;;16.42;50.48;102937.97;5009946;28;8777;-74
2022/03/07 09:19:05;;;;;;;;;1.00;1.00;;;;;16.37;50.57;102926.34;5010809;28;9524;-75
2022/03/07 09:21:30;;;;;;;;;1.75;1.75;;;;;16.37;50.65;102932.53;5010392;28;8792;-75
2022/03/07 09:23:55;;;;;;;;;1.00;1.00;;;;;16.38;50.47;102925.53;5010520;28;8935;-74
2022/03/07 09:26:21;;;;;;;;;1.00;1.00;;;;;16.47;50.16;102920.50;5011192;28;8790;-73
2022/03/07 09:28:47;;;;;;;;;1.00;1.00;;;;;16.51;50.13;102921.50;5010340;28;8802;-74
2022/03/07 09:31:21;;;;;;;;;1.75;1.75;;;;;16.52;49.95;102916.28;5017114;28;8794;-75
2022/03/07 09:33:46;;;;;;;;;0.25;0.25;;;;;16.51;49.64;102913.59;5030357;28;8783;-74
2022/03/07 09:36:12;;;;;;;;;0.25;0.25;;;;;16.52;49.68;102911.00;5030190;28;9582;-74
2022/03/07 09:38:38;;;;;;;;;1.00;1.00;;;;;16.62;49.44;102904.28;5029894;28;8815;-74
2022/03/07 09:41:04;;;;;;;;;2.50;1.50;;;;;16.59;49.32;102912.13;5030517;28;8794;-74
2022/03/07 09:43:30;;;;;;;;;1.00;1.00;;;;;16.56;49.04;102901.44;5029755;28;8791;-74
2022/03/07 09:45:56;;;;;;;;;1.00;1.00;;;;;16.53;49.49;102912.81;5030218;28;9730;-74
2022/03/07 09:48:23;;;;;;;;;0.50;0.50;;;;;16.55;49.25;102902.28;5030444;28;9301;-74
2022/03/07 09:50:49;;;;;;;;;0.75;0.75;;;;;16.52;49.14;102903.09;5029702;28;8818;-73
2022/03/07 09:53:16;;;;;;;;;2.25;2.00;;;;;16.58;49.13;102905.94;5030038;28;9488;-74
2022/03/07 09:55:45;;;;;;;;;2.75;2.75;;;;;16.56;48.97;102897.09;5030878;28;8806;-74
2022/03/07 09:58:10;;;;;;;;;2.00;1.00;;;;;16.56;49.05;102897.09;5033639;28;9446;-74
2022/03/07 10:00:41;;;;;;;;;0.00;0.00;;;;;16.57;48.84;102884.81;5034260;28;10113;-74
2022/03/07 10:03:09;;;;;;;;;1.00;1.00;;;;;16.53;48.79;102880.28;5034230;28;8775;-73
2022/03/07 10:05:37;;;;;;;;;2.00;1.50;;;;;16.55;48.77;102887.38;5033121;28;9595;-75
2022/03/07 10:08:04;;;;;;;;;0.75;0.75;;;;;16.57;48.59;102871.63;5034326;28;9693;-74
2022/03/07 10:10:35;;;;;;;;;1.00;1.00;;;;;16.54;48.53;102868.84;5033991;28;9541;-74
2022/03/07 10:13:10;;;;;;;;;2.00;2.00;;;;;16.58;48.62;102865.50;5033679;28;9591;-74
2022/03/07 10:15:37;;;;;;;;;1.75;1.50;;;;;16.57;48.55;102869.88;5019340;28;10427;-75
2022/03/07 10:18:07;;;;;;;;;1.50;1.50;;;;;16.57;48.45;102856.69;5013748;28;9637;-74
2022/03/07 10:20:32;;;;;;;;;1.00;1.00;;;;;16.55;48.25;102858.34;5012788;28;10408;-74
2022/03/07 10:23:00;;;;;;;;;1.00;1.00;;;;;16.60;48.38;102856.78;5014244;28;9591;-74
2022/03/07 10:25:31;;;;;;;;;1.00;1.00;;;;;16.63;47.91;102858.63;5013428;28;8797;-73
2022/03/07 10:27:59;;;;;;;;;1.25;1.25;;;;;16.60;48.03;102861.16;5014042;28;10552;-74
2022/03/07 10:30:30;;;;;;;;;1.25;1.00;;;;;16.63;47.95;102854.25;5013858;28;9685;-74
2022/03/07 10:33:03;;;;;;;;;0.00;0.00;;;;;16.59;47.89;102852.34;5013518;28;9598;-74
2022/03/07 10:35:33;;;;;;;;;0.00;0.00;;;;;16.63;47.58;102838.41;5013863;28;9399;-74
2022/03/07 10:38:01;;;;;;;;;1.00;0.75;;;;;16.68;47.50;102839.44;5013728;28;9582;-73
2022/03/07 10:40:28;;;;;;;;;1.00;1.00;;;;;16.70;47.44;102835.09;5013595;28;9571;-73
2022/03/07 10:43:00;;;;;;;;;1.00;1.00;;;;;16.72;47.54;102837.78;5013942;28;9561;-74
2022/03/07 10:45:52;;;;;;;;;0.00;0.00;;;;;16.71;47.32;102834.25;5013491;28;9466;-74
2022/03/07 10:48:45;;;;;;;;;1.00;0.33;;;;;16.77;47.24;102823.88;5013576;28;9432;-74
2022/03/07 10:51:16;;;;;;;;;0.00;0.00;;;;;16.71;47.43;102828.09;5012979;28;9345;-74
2022/03/07 10:53:45;;;;;;;;;0.00;0.00;;;;;16.69;47.35;102820.13;5013057;28;9205;-74
2022/03/07 10:56:23;;;;;;;;;1.75;1.75;;;;;16.77;46.99;102820.31;5013671;28;9364;-74
2022/03/07 10:58:54;;;;;;;;;0.25;0.25;;;;;16.79;46.92;102816.91;5012988;28;9648;-74
2022/03/07 11:01:27;;;;;;;;;1.00;1.00;;;;;16.73;47.02;102813.19;5013113;28;9561;-74
2022/03/07 11:03:53;;;;;;;;;3.00;1.00;;;;;16.80;46.74;102810.75;5013304;28;9644;-73
2022/03/07 11:06:18;;;;;;;;;1.00;1.00;;;;;16.77;46.97;102815.06;5013765;28;9636;-74
2022/03/07 11:08:46;;;;;;;;;1.00;1.00;;;;;16.78;46.58;102804.56;5011956;28;9249;-73
2022/03/07 11:11:13;;;;;;;;;1.00;1.00;;;;;16.82;46.80;102805.53;5013387;28;8794;-74
2022/03/07 11:13:39;;;;;;;;;0.25;0.25;;;;;16.81;46.50;102804.63;5012945;28;9495;-71
2022/03/07 11:16:05;;;;;;;;;0.25;0.25;;;;;16.80;46.58;102800.19;5031147;28;9521;-74
2022/03/07 11:18:32;;;;;;;;;1.00;1.00;;;;;16.81;46.35;102798.47;5032573;28;9570;-74
2022/03/07 11:20:59;;;;;;;;;0.00;0.00;;;;;16.82;46.25;102794.97;5033281;28;9714;-73
2022/03/07 11:23:25;;;;;;;;;1.00;1.00;;;;;16.77;46.33;102794.84;5032255;28;9425;-73
2022/03/07 11:25:53;;;;;;;;;0.75;0.75;;;;;16.81;46.18;102802.00;5032680;28;9878;-74
2022/03/07 11:28:22;;;;;;;;;1.00;1.00;;;;;16.88;46.30;102803.94;5032525;28;9524;-73
2022/03/07 11:30:48;;;;;;;;;2.00;0.75;;;;;16.80;46.08;102801.94;5032514;28;9474;-73